Genua — IIYU — position and weather

sailwx.info

Track history (hours):
 
Tides and Currents Weather Stations Pressure Air Temp Water Temp Dewpoint Dewpoint Depression Visibility Wind Speed Wind Dir Waves Ship Positions

Genua

Last reported at 2016-Sep-30 03:34 UTC. Time now 2016-Sep-30 05:01 UTC.
Position N 44°25' E 008°55'.

; draft 5.2 m.

Type: Tug. MMSI: 247204000.

Date/timePositionNaut miles runAvg speedWind from/ knotsBaromVisibWave heightAir tempDewpointWater temp
2016-Sep-30 03:34N 44°25' E 008°55'0 0.0
2016-Sep-30 02:34N 44°25' E 008°55'0 0.0
2016-Sep-29 23:34N 44°25' E 008°55'0 0.0
2016-Sep-29 21:33N 44°25' E 008°55'0 0.0
2016-Sep-29 20:33N 44°25' E 008°55'0 0.0
2016-Sep-29 19:33N 44°25' E 008°55'0 0.0
2016-Sep-29 16:33N 44°25' E 008°55'0 0.0
2016-Sep-29 15:33N 44°25' E 008°55'0 0.0
2016-Sep-29 14:33N 44°25' E 008°55'0 0.0
2016-Sep-29 13:33N 44°25' E 008°55'4 0.9
2016-Sep-29 08:33N 44°25' E 008°49'  
2016-Sep-26 08:04N 44°25' E 008°47'0 0.0
2016-Sep-26 02:33N 44°25' E 008°47'0 0.0
2016-Sep-26 01:34N 44°25' E 008°47'0 0.0
2016-Sep-26 00:33N 44°25' E 008°47'0 0.0
2016-Sep-25 21:33N 44°25' E 008°47'0 0.0
2016-Sep-25 17:34N 44°25' E 008°47'0 0.0
2016-Sep-25 16:33N 44°25' E 008°47'0 0.0
2016-Sep-25 15:32N 44°25' E 008°47'0 0.0
2016-Sep-25 14:33N 44°25' E 008°47'0 0.0
2016-Sep-25 12:33N 44°25' E 008°47'0 0.0
2016-Sep-25 11:34N 44°25' E 008°47'0 0.0
2016-Sep-25 10:33N 44°25' E 008°47'0 0.0
2016-Sep-25 09:33N 44°25' E 008°47'0 0.0
2016-Sep-25 07:33N 44°25' E 008°47'0 0.0
2016-Sep-25 04:33N 44°25' E 008°47'0 0.0
2016-Sep-25 00:33N 44°25' E 008°47'0 0.0
2016-Sep-24 22:33N 44°25' E 008°47'0 0.0
2016-Sep-24 21:33N 44°25' E 008°47'0 0.0
2016-Sep-24 19:33N 44°25' E 008°47'0 0.0
2016-Sep-24 18:33N 44°25' E 008°47'0 0.0
2016-Sep-24 17:33N 44°25' E 008°47'0 0.0
2016-Sep-24 16:33N 44°25' E 008°47'0 0.0
2016-Sep-24 14:33N 44°25' E 008°47'0 0.0
2016-Sep-24 12:34N 44°25' E 008°47'0 0.0
2016-Sep-24 10:34N 44°25' E 008°47'0 0.0
2016-Sep-24 09:33N 44°25' E 008°47'0 0.0
2016-Sep-24 03:33N 44°25' E 008°47'0 0.0
2016-Sep-24 02:33N 44°25' E 008°47'0 0.0
2016-Sep-24 01:32N 44°25' E 008°47'0 0.0
2016-Sep-24 00:33N 44°25' E 008°47'0 0.0
2016-Sep-23 19:33N 44°25' E 008°47'0 0.0
2016-Sep-23 17:32N 44°25' E 008°47'0 0.0
2016-Sep-23 16:33N 44°25' E 008°47'0 0.0
2016-Sep-23 15:33N 44°25' E 008°47'0 0.0
2016-Sep-23 13:33N 44°25' E 008°47'0 0.0
2016-Sep-23 09:33N 44°25' E 008°47'1 0.4
2016-Sep-23 06:33N 44°24' E 008°48'1 0.6
2016-Sep-23 04:33N 44°25' E 008°47'0 0.0
2016-Sep-23 03:33N 44°25' E 008°47'0 0.0
2016-Sep-23 02:33N 44°25' E 008°47'0 0.0
2016-Sep-23 01:33N 44°25' E 008°47'0 0.0
2016-Sep-23 00:33N 44°25' E 008°47'0 0.0
2016-Sep-22 23:33N 44°25' E 008°47'0 0.0
2016-Sep-22 20:33N 44°25' E 008°47'2 0.3
2016-Sep-22 12:33N 44°25' E 008°50'1 0.1
2016-Sep-22 04:33N 44°25' E 008°49'1 1.5
2016-Sep-22 03:33N 44°25' E 008°47'0 0.0
2016-Sep-22 00:33N 44°25' E 008°47'0 0.0
2016-Sep-21 23:33N 44°25' E 008°47'0 0.0
2016-Sep-21 22:33N 44°25' E 008°47'1 0.2
2016-Sep-21 19:33N 44°25' E 008°47'1 0.2
2016-Sep-21 16:33N 44°25' E 008°47'0 0.0
2016-Sep-21 09:33N 44°25' E 008°47'0 0.0
2016-Sep-21 08:33N 44°25' E 008°47'0 0.0
2016-Sep-21 05:33N 44°25' E 008°47'0 0.0
2016-Sep-21 03:33N 44°25' E 008°47'0 0.0
2016-Sep-21 02:33N 44°25' E 008°47'0 0.0
2016-Sep-20 17:33N 44°25' E 008°47'0 0.0
2016-Sep-20 14:33N 44°25' E 008°47'0 0.0
2016-Sep-20 13:33N 44°25' E 008°47'0 0.0
2016-Sep-20 10:33N 44°25' E 008°47'0 0.0
2016-Sep-20 08:33N 44°25' E 008°47'0 0.0
2016-Sep-20 07:33N 44°25' E 008°47'0 0.0
2016-Sep-20 06:33N 44°25' E 008°47'  
Track history (hours):
 
Tides and Currents Weather Stations Pressure Air Temp Water Temp Dewpoint Dewpoint Depression Visibility Wind Speed Wind Dir Waves Ship Positions

Genua

Last reported at 2016-Sep-30 03:34 UTC. Time now 2016-Sep-30 05:01 UTC.
Position N 44°25' E 008°55'.

; draft 5.2 m.

Type: Tug. MMSI: 247204000.

Date/timePositionNaut miles runAvg speedWind from/ knotsBaromVisibWave heightAir tempDewpointWater temp
2016-Sep-30 03:34N 44°25' E 008°55'0 0.0
2016-Sep-30 02:34N 44°25' E 008°55'0 0.0
2016-Sep-29 23:34N 44°25' E 008°55'0 0.0
2016-Sep-29 21:33N 44°25' E 008°55'0 0.0
2016-Sep-29 20:33N 44°25' E 008°55'0 0.0
2016-Sep-29 19:33N 44°25' E 008°55'0 0.0
2016-Sep-29 16:33N 44°25' E 008°55'0 0.0
2016-Sep-29 15:33N 44°25' E 008°55'0 0.0
2016-Sep-29 14:33N 44°25' E 008°55'0 0.0
2016-Sep-29 13:33N 44°25' E 008°55'4 0.9
2016-Sep-29 08:33N 44°25' E 008°49'  
2016-Sep-26 08:04N 44°25' E 008°47'0 0.0
2016-Sep-26 02:33N 44°25' E 008°47'0 0.0
2016-Sep-26 01:34N 44°25' E 008°47'0 0.0
2016-Sep-26 00:33N 44°25' E 008°47'0 0.0
2016-Sep-25 21:33N 44°25' E 008°47'0 0.0
2016-Sep-25 17:34N 44°25' E 008°47'0 0.0
2016-Sep-25 16:33N 44°25' E 008°47'0 0.0
2016-Sep-25 15:32N 44°25' E 008°47'0 0.0
2016-Sep-25 14:33N 44°25' E 008°47'0 0.0
2016-Sep-25 12:33N 44°25' E 008°47'0 0.0
2016-Sep-25 11:34N 44°25' E 008°47'0 0.0
2016-Sep-25 10:33N 44°25' E 008°47'0 0.0
2016-Sep-25 09:33N 44°25' E 008°47'0 0.0
2016-Sep-25 07:33N 44°25' E 008°47'0 0.0
2016-Sep-25 04:33N 44°25' E 008°47'0 0.0
2016-Sep-25 00:33N 44°25' E 008°47'0 0.0
2016-Sep-24 22:33N 44°25' E 008°47'0 0.0
2016-Sep-24 21:33N 44°25' E 008°47'0 0.0
2016-Sep-24 19:33N 44°25' E 008°47'0 0.0
2016-Sep-24 18:33N 44°25' E 008°47'0 0.0
2016-Sep-24 17:33N 44°25' E 008°47'0 0.0
2016-Sep-24 16:33N 44°25' E 008°47'0 0.0
2016-Sep-24 14:33N 44°25' E 008°47'0 0.0
2016-Sep-24 12:34N 44°25' E 008°47'0 0.0
2016-Sep-24 10:34N 44°25' E 008°47'0 0.0
2016-Sep-24 09:33N 44°25' E 008°47'0 0.0
2016-Sep-24 03:33N 44°25' E 008°47'0 0.0
2016-Sep-24 02:33N 44°25' E 008°47'0 0.0
2016-Sep-24 01:32N 44°25' E 008°47'0 0.0
2016-Sep-24 00:33N 44°25' E 008°47'0 0.0
2016-Sep-23 19:33N 44°25' E 008°47'0 0.0
2016-Sep-23 17:32N 44°25' E 008°47'0 0.0
2016-Sep-23 16:33N 44°25' E 008°47'0 0.0
2016-Sep-23 15:33N 44°25' E 008°47'0 0.0
2016-Sep-23 13:33N 44°25' E 008°47'0 0.0
2016-Sep-23 09:33N 44°25' E 008°47'1 0.4
2016-Sep-23 06:33N 44°24' E 008°48'1 0.6
2016-Sep-23 04:33N 44°25' E 008°47'0 0.0
2016-Sep-23 03:33N 44°25' E 008°47'0 0.0
2016-Sep-23 02:33N 44°25' E 008°47'0 0.0
2016-Sep-23 01:33N 44°25' E 008°47'0 0.0
2016-Sep-23 00:33N 44°25' E 008°47'0 0.0
2016-Sep-22 23:33N 44°25' E 008°47'0 0.0
2016-Sep-22 20:33N 44°25' E 008°47'2 0.3
2016-Sep-22 12:33N 44°25' E 008°50'1 0.1
2016-Sep-22 04:33N 44°25' E 008°49'1 1.5
2016-Sep-22 03:33N 44°25' E 008°47'0 0.0
2016-Sep-22 00:33N 44°25' E 008°47'0 0.0
2016-Sep-21 23:33N 44°25' E 008°47'0 0.0
2016-Sep-21 22:33N 44°25' E 008°47'1 0.2
2016-Sep-21 19:33N 44°25' E 008°47'1 0.2
2016-Sep-21 16:33N 44°25' E 008°47'0 0.0
2016-Sep-21 09:33N 44°25' E 008°47'0 0.0
2016-Sep-21 08:33N 44°25' E 008°47'0 0.0
2016-Sep-21 05:33N 44°25' E 008°47'0 0.0
2016-Sep-21 03:33N 44°25' E 008°47'0 0.0
2016-Sep-21 02:33N 44°25' E 008°47'0 0.0
2016-Sep-20 17:33N 44°25' E 008°47'0 0.0
2016-Sep-20 14:33N 44°25' E 008°47'0 0.0
2016-Sep-20 13:33N 44°25' E 008°47'0 0.0
2016-Sep-20 10:33N 44°25' E 008°47'0 0.0
2016-Sep-20 08:33N 44°25' E 008°47'0 0.0
2016-Sep-20 07:33N 44°25' E 008°47'0 0.0
2016-Sep-20 06:33N 44°25' E 008°47'  

Dump ship's entire track history